Tres Isletas, Argentina
Current Conditions -  °F | °C
As of 1:00 PM on Saturday 25 Oct 2014 (Local Time) from SARE Reporting Station
Clear Clear  
Wind Chill: 91°   Ceiling: Unl
Heat Index: 91°   Visibility: 6mi
Dew Point: 61°   Wind: 7mph
Humidity: 36%   Direction: 110°ESE
Pressure: 29.85"   Gusts: NA
Location:  26.35°S, 60.43°W
Report Text: SARE 251600Z 11006KT CAVOK 33/16 Q1011
Loading
Personal Weather Stations






























Interactive Weather Map New forecast layout! Learn more

10-Day Weather Forecast

Advertisements
Track Severe Weather on mobile